< < Back
Terminal Aerodrome Forecast


Current Version              Previous Versions:   1  2  3  4  5  6  7  8  9  

Terminal Aerodrome Forecast

817
FTUS42 KFFC 011011 AAA
TAFPDK
TAF AMD
KPDK 011011Z 0110/0206 00000KT P6SM FEW025 SCT060
      TEMPO 0110/0112 5SM BR
     FM011500 VRB03KT P6SM SCT030 SCT250
     FM011800 VRB04KT P6SM SCT050 SCT250
     FM020000 00000KT P6SM SCT250=

Latest METAR

960
SAUS70 KWBC 011200 RRU
MTRPDK
METAR KPDK 011153Z 00000KT 9SM CLR 20/20 A3015 RMK AO2 SLP196 T02000200
10206 20183 53011


USA.gov is the U.S. government's official web portal to all federal, state and local government web resources and services.